Craig, AK

9:15 AM AKDT on May 27, 2015 (GMT -0800)
Klawock | | Change Station
CLOSE
Current Station
Airport
Location: Klawock,
Elevation: 79 ft
Nearby Weather Stations

Elev 79 ft 55.58 °N, 133.08 °W | Updated 22 minutes ago

Scattered Clouds
Scattered Clouds
57 °F
Feels Like 57 °F
N
9
Wind Variable Wind from SW

Today
High -- | Low -- °F
--% Chance of Precip.
Yesterday
High -- | Low -- °F
Precip. -- in
4:23 AM 9:16 PM
Waxing Gibbous, 68% visible
Pressure 30.20 in
Visibility 10.0 miles
Clouds Scattered Clouds 2900 ft
Scattered Clouds 3600 ft
Dew Point 48 °F
Humidity 72%
Rainfall 0.00 in
Snow Depth Not available.
UV 3 out of 12
Pollen Not available.
Air Quality Not available.
Flu Activity Local Activity
METAR PAKW 271653Z AUTO 23008KT 220V280 10SM SCT029 SCT036 14/09 A3020 RMK AO2 SLP226 T01390089 TSNO

More Conditions Fewer Conditions

Pressure 30.20 in
Visibility 10.0 miles
Clouds Scattered Clouds 2900 ft
Scattered Clouds 3600 ft
Dew Point 48 °F
Humidity 72%
Rainfall 0.00 in
Snow Depth Not available.
UV 3 out of 12
Pollen Not available.
Air Quality Not available.
Flu Activity Local Activity
METAR PAKW 271653Z AUTO 23008KT 220V280 10SM SCT029 SCT036 14/09 A3020 RMK AO2 SLP226 T01390089 TSNO

More Conditions Fewer Conditions

10-Day Weather Forecast

Almanac

Astronomy

May. 27, 2015 Rise Set
Actual Time
Civil Twilight
Nautical Twilight
Astronomical Twilight
Moon
Length of Visible Light
Length of Day
Tomorrow will be .
, % of the Moon is Illuminated

Today's Extremes

State Highs State Lows

Community

WunderPhotos

Upload Photos

1,824,716 photos uploaded!

WunderBlogs® & News

Nearby

Air Quality

  Air Quality AQ Index Pollutant
Not available.

Snow Depth

Station Depth Elevation

Earthquake Activity

City Distance Mag. Time & Date
Minimum magnitude displayed is 2.5.

Coastal Water Temperatures

Place Temperature

Stations

Nearby Weather Stations

Station Location Temp. Windchill Dew Point Humidity Wind Precip. Elev Updated Type